sensor_id;sensor_type;location;lat;lon;timestamp;P1;durP1;ratioP1;P2;durP2;ratioP2
71116;SDS011;58775;46.992;9.518;2024-03-02T00:02:21;4.90;;;1.48;;
71116;SDS011;58775;46.992;9.518;2024-03-02T00:04:25;4.40;;;1.45;;
71116;SDS011;58775;46.992;9.518;2024-03-02T00:06:31;4.25;;;1.00;;
71116;SDS011;58775;46.992;9.518;2024-03-02T00:08:32;4.60;;;1.30;;
71116;SDS011;58775;46.992;9.518;2024-03-02T00:10:37;5.15;;;0.93;;
71116;SDS011;58775;46.992;9.518;2024-03-02T00:12:41;2.78;;;0.77;;
71116;SDS011;58775;46.992;9.518;2024-03-02T00:14:43;2.60;;;0.75;;
71116;SDS011;58775;46.992;9.518;2024-03-02T00:16:43;2.60;;;0.80;;
71116;SDS011;58775;46.992;9.518;2024-03-02T00:18:44;4.25;;;0.90;;
71116;SDS011;58775;46.992;9.518;2024-03-02T00:20:46;2.50;;;0.77;;
71116;SDS011;58775;46.992;9.518;2024-03-02T00:22:47;3.58;;;1.15;;
71116;SDS011;58775;46.992;9.518;2024-03-02T00:24:48;3.13;;;0.85;;
71116;SDS011;58775;46.992;9.518;2024-03-02T00:26:54;4.22;;;0.93;;
71116;SDS011;58775;46.992;9.518;2024-03-02T00:28:57;3.85;;;1.25;;
71116;SDS011;58775;46.992;9.518;2024-03-02T00:33:07;5.10;;;1.30;;
71116;SDS011;58775;46.992;9.518;2024-03-02T00:35:08;3.67;;;0.90;;
71116;SDS011;58775;46.992;9.518;2024-03-02T00:37:10;3.47;;;1.10;;
71116;SDS011;58775;46.992;9.518;2024-03-02T00:39:12;2.70;;;1.02;;
71116;SDS011;58775;46.992;9.518;2024-03-02T00:41:26;3.60;;;1.00;;
71116;SDS011;58775;46.992;9.518;2024-03-02T00:44:12;2.80;;;1.33;;
71116;SDS011;58775;46.992;9.518;2024-03-02T00:46:18;7.28;;;2.38;;
71116;SDS011;58775;46.992;9.518;2024-03-02T00:48:36;4.85;;;1.52;;
71116;SDS011;58775;46.992;9.518;2024-03-02T00:54:56;3.50;;;1.00;;
71116;SDS011;58775;46.992;9.518;2024-03-02T00:56:57;3.67;;;1.17;;
71116;SDS011;58775;46.992;9.518;2024-03-02T00:59:09;5.95;;;1.75;;
71116;SDS011;58775;46.992;9.518;2024-03-02T01:05:30;6.05;;;1.90;;
71116;SDS011;58775;46.992;9.518;2024-03-02T01:07:41;4.37;;;1.10;;
71116;SDS011;58775;46.992;9.518;2024-03-02T01:09:51;5.03;;;1.15;;
71116;SDS011;58775;46.992;9.518;2024-03-02T01:12:13;3.67;;;1.13;;
71116;SDS011;58775;46.992;9.518;2024-03-02T01:14:31;5.70;;;1.60;;
71116;SDS011;58775;46.992;9.518;2024-03-02T01:16:34;5.18;;;1.88;;
71116;SDS011;58775;46.992;9.518;2024-03-02T01:18:40;5.50;;;1.40;;
71116;SDS011;58775;46.992;9.518;2024-03-02T01:21:00;4.78;;;1.35;;
71116;SDS011;58775;46.992;9.518;2024-03-02T01:23:05;3.05;;;0.95;;
71116;SDS011;58775;46.992;9.518;2024-03-02T01:25:06;3.53;;;0.90;;
71116;SDS011;58775;46.992;9.518;2024-03-02T01:27:12;4.30;;;1.27;;
71116;SDS011;58775;46.992;9.518;2024-03-02T01:29:15;4.67;;;1.23;;
71116;SDS011;58775;46.992;9.518;2024-03-02T01:31:22;3.40;;;1.00;;
71116;SDS011;58775;46.992;9.518;2024-03-02T01:33:28;3.45;;;1.02;;
71116;SDS011;58775;46.992;9.518;2024-03-02T01:35:29;3.93;;;0.97;;
71116;SDS011;58775;46.992;9.518;2024-03-02T01:37:30;4.85;;;1.70;;
71116;SDS011;58775;46.992;9.518;2024-03-02T01:39:31;5.65;;;1.60;;
71116;SDS011;58775;46.992;9.518;2024-03-02T01:41:42;3.83;;;1.00;;
71116;SDS011;58775;46.992;9.518;2024-03-02T01:43:55;2.65;;;0.60;;
71116;SDS011;58775;46.992;9.518;2024-03-02T01:46:14;2.60;;;0.70;;
71116;SDS011;58775;46.992;9.518;2024-03-02T01:51:45;5.05;;;1.08;;
71116;SDS011;58775;46.992;9.518;2024-03-02T01:53:59;7.15;;;2.03;;
71116;SDS011;58775;46.992;9.518;2024-03-02T01:56:48;5.82;;;1.70;;
71116;SDS011;58775;46.992;9.518;2024-03-02T01:58:55;6.93;;;1.83;;
71116;SDS011;58775;46.992;9.518;2024-03-02T02:01:01;4.50;;;1.40;;
71116;SDS011;58775;46.992;9.518;2024-03-02T02:03:39;5.80;;;1.85;;
71116;SDS011;58775;46.992;9.518;2024-03-02T02:06:07;4.05;;;1.42;;
71116;SDS011;58775;46.992;9.518;2024-03-02T02:08:11;5.18;;;1.45;;
71116;SDS011;58775;46.992;9.518;2024-03-02T02:10:16;5.03;;;1.48;;
71116;SDS011;58775;46.992;9.518;2024-03-02T02:12:17;4.53;;;1.40;;
71116;SDS011;58775;46.992;9.518;2024-03-02T02:14:18;5.03;;;1.73;;
71116;SDS011;58775;46.992;9.518;2024-03-02T02:16:19;6.93;;;1.42;;
71116;SDS011;58775;46.992;9.518;2024-03-02T02:18:19;6.85;;;2.00;;
71116;SDS011;58775;46.992;9.518;2024-03-02T02:20:20;5.67;;;2.17;;
71116;SDS011;58775;46.992;9.518;2024-03-02T02:22:21;5.65;;;1.70;;
71116;SDS011;58775;46.992;9.518;2024-03-02T02:24:25;7.55;;;1.40;;
71116;SDS011;58775;46.992;9.518;2024-03-02T02:26:39;6.85;;;1.42;;
71116;SDS011;58775;46.992;9.518;2024-03-02T02:28:40;4.90;;;1.73;;
71116;SDS011;58775;46.992;9.518;2024-03-02T02:30:47;4.50;;;1.10;;
71116;SDS011;58775;46.992;9.518;2024-03-02T02:32:48;6.03;;;1.35;;
71116;SDS011;58775;46.992;9.518;2024-03-02T02:34:52;4.35;;;1.20;;
71116;SDS011;58775;46.992;9.518;2024-03-02T02:36:53;3.70;;;1.20;;
71116;SDS011;58775;46.992;9.518;2024-03-02T02:38:54;4.10;;;1.30;;
71116;SDS011;58775;46.992;9.518;2024-03-02T02:40:56;3.80;;;1.15;;
71116;SDS011;58775;46.992;9.518;2024-03-02T02:42:57;3.80;;;1.10;;
71116;SDS011;58775;46.992;9.518;2024-03-02T02:44:59;4.55;;;1.13;;
71116;SDS011;58775;46.992;9.518;2024-03-02T02:47:00;5.72;;;1.65;;
71116;SDS011;58775;46.992;9.518;2024-03-02T02:49:01;6.15;;;1.95;;
71116;SDS011;58775;46.992;9.518;2024-03-02T02:51:02;6.37;;;1.77;;
71116;SDS011;58775;46.992;9.518;2024-03-02T02:53:03;5.78;;;1.60;;
71116;SDS011;58775;46.992;9.518;2024-03-02T02:55:04;5.82;;;2.00;;
71116;SDS011;58775;46.992;9.518;2024-03-02T02:57:05;7.38;;;2.50;;
71116;SDS011;58775;46.992;9.518;2024-03-02T02:59:06;7.83;;;2.10;;
71116;SDS011;58775;46.992;9.518;2024-03-02T03:01:07;5.35;;;1.50;;
71116;SDS011;58775;46.992;9.518;2024-03-02T03:03:08;6.60;;;2.15;;
71116;SDS011;58775;46.992;9.518;2024-03-02T03:05:10;6.67;;;2.23;;
71116;SDS011;58775;46.992;9.518;2024-03-02T03:07:12;5.43;;;1.63;;
71116;SDS011;58775;46.992;9.518;2024-03-02T03:09:13;6.25;;;1.85;;
71116;SDS011;58775;46.992;9.518;2024-03-02T03:11:14;5.30;;;1.93;;
71116;SDS011;58775;46.992;9.518;2024-03-02T03:13:15;6.75;;;2.35;;
71116;SDS011;58775;46.992;9.518;2024-03-02T03:15:16;8.90;;;2.65;;
71116;SDS011;58775;46.992;9.518;2024-03-02T03:17:16;10.25;;;3.05;;
71116;SDS011;58775;46.992;9.518;2024-03-02T03:19:17;6.72;;;2.40;;
71116;SDS011;58775;46.992;9.518;2024-03-02T03:21:18;9.17;;;2.90;;
71116;SDS011;58775;46.992;9.518;2024-03-02T03:23:19;7.07;;;2.60;;
71116;SDS011;58775;46.992;9.518;2024-03-02T03:25:21;7.43;;;2.78;;
71116;SDS011;58775;46.992;9.518;2024-03-02T03:27:21;6.50;;;2.30;;
71116;SDS011;58775;46.992;9.518;2024-03-02T03:29:22;7.05;;;2.75;;
71116;SDS011;58775;46.992;9.518;2024-03-02T03:31:23;7.72;;;2.50;;
71116;SDS011;58775;46.992;9.518;2024-03-02T03:33:25;7.53;;;2.57;;
71116;SDS011;58775;46.992;9.518;2024-03-02T03:35:26;6.22;;;2.10;;
71116;SDS011;58775;46.992;9.518;2024-03-02T03:37:26;7.57;;;2.53;;
71116;SDS011;58775;46.992;9.518;2024-03-02T03:39:33;8.00;;;2.80;;
71116;SDS011;58775;46.992;9.518;2024-03-02T03:41:35;7.38;;;2.33;;
71116;SDS011;58775;46.992;9.518;2024-03-02T03:43:36;5.18;;;1.73;;
71116;SDS011;58775;46.992;9.518;2024-03-02T03:45:37;4.68;;;1.40;;
71116;SDS011;58775;46.992;9.518;2024-03-02T03:47:38;4.93;;;1.60;;
71116;SDS011;58775;46.992;9.518;2024-03-02T03:49:39;5.47;;;1.77;;
71116;SDS011;58775;46.992;9.518;2024-03-02T03:51:40;5.28;;;1.92;;
71116;SDS011;58775;46.992;9.518;2024-03-02T03:53:41;5.80;;;1.70;;
71116;SDS011;58775;46.992;9.518;2024-03-02T03:55:43;5.93;;;1.90;;
71116;SDS011;58775;46.992;9.518;2024-03-02T03:57:47;5.00;;;1.65;;
71116;SDS011;58775;46.992;9.518;2024-03-02T03:59:47;5.63;;;1.70;;
71116;SDS011;58775;46.992;9.518;2024-03-02T04:01:48;5.82;;;1.65;;
71116;SDS011;58775;46.992;9.518;2024-03-02T04:03:49;6.05;;;1.85;;
71116;SDS011;58775;46.992;9.518;2024-03-02T04:05:52;9.47;;;2.10;;
71116;SDS011;58775;46.992;9.518;2024-03-02T04:07:58;6.68;;;2.22;;
71116;SDS011;58775;46.992;9.518;2024-03-02T04:10:00;7.55;;;1.90;;
71116;SDS011;58775;46.992;9.518;2024-03-02T04:12:06;8.73;;;1.75;;
71116;SDS011;58775;46.992;9.518;2024-03-02T04:14:42;6.38;;;1.95;;
71116;SDS011;58775;46.992;9.518;2024-03-02T04:16:43;5.50;;;1.90;;
71116;SDS011;58775;46.992;9.518;2024-03-02T04:18:44;7.50;;;2.60;;
71116;SDS011;58775;46.992;9.518;2024-03-02T04:20:48;6.78;;;1.92;;
71116;SDS011;58775;46.992;9.518;2024-03-02T04:22:49;6.47;;;1.92;;
71116;SDS011;58775;46.992;9.518;2024-03-02T04:24:49;6.53;;;1.97;;
71116;SDS011;58775;46.992;9.518;2024-03-02T04:26:56;7.05;;;2.13;;
71116;SDS011;58775;46.992;9.518;2024-03-02T04:28:59;5.80;;;1.88;;
71116;SDS011;58775;46.992;9.518;2024-03-02T04:31:00;5.72;;;1.88;;
71116;SDS011;58775;46.992;9.518;2024-03-02T04:33:01;8.90;;;2.23;;
71116;SDS011;58775;46.992;9.518;2024-03-02T04:35:04;6.75;;;1.80;;
71116;SDS011;58775;46.992;9.518;2024-03-02T04:37:09;6.40;;;2.05;;
71116;SDS011;58775;46.992;9.518;2024-03-02T04:39:12;7.03;;;2.25;;
71116;SDS011;58775;46.992;9.518;2024-03-02T04:41:16;5.57;;;2.10;;
71116;SDS011;58775;46.992;9.518;2024-03-02T04:43:17;5.82;;;1.67;;
71116;SDS011;58775;46.992;9.518;2024-03-02T04:45:19;5.25;;;1.63;;
71116;SDS011;58775;46.992;9.518;2024-03-02T04:47:23;5.38;;;1.70;;
71116;SDS011;58775;46.992;9.518;2024-03-02T04:49:24;5.33;;;2.27;;
71116;SDS011;58775;46.992;9.518;2024-03-02T04:51:27;7.00;;;2.65;;
71116;SDS011;58775;46.992;9.518;2024-03-02T04:53:40;6.45;;;2.17;;
71116;SDS011;58775;46.992;9.518;2024-03-02T04:55:43;6.53;;;2.35;;
71116;SDS011;58775;46.992;9.518;2024-03-02T04:57:44;7.28;;;2.30;;
71116;SDS011;58775;46.992;9.518;2024-03-02T04:59:45;6.22;;;2.22;;
71116;SDS011;58775;46.992;9.518;2024-03-02T05:01:46;6.32;;;2.22;;
71116;SDS011;58775;46.992;9.518;2024-03-02T05:03:47;6.25;;;1.95;;
71116;SDS011;58775;46.992;9.518;2024-03-02T05:05:49;6.20;;;2.33;;
71116;SDS011;58775;46.992;9.518;2024-03-02T05:07:50;7.53;;;2.50;;
71116;SDS011;58775;46.992;9.518;2024-03-02T05:09:51;6.78;;;2.40;;
71116;SDS011;58775;46.992;9.518;2024-03-02T05:11:52;6.17;;;2.23;;
71116;SDS011;58775;46.992;9.518;2024-03-02T05:14:11;5.55;;;1.90;;
71116;SDS011;58775;46.992;9.518;2024-03-02T05:16:15;5.95;;;2.00;;
71116;SDS011;58775;46.992;9.518;2024-03-02T05:18:16;6.18;;;2.17;;
71116;SDS011;58775;46.992;9.518;2024-03-02T05:20:17;7.28;;;2.17;;
71116;SDS011;58775;46.992;9.518;2024-03-02T05:22:18;4.85;;;1.80;;
71116;SDS011;58775;46.992;9.518;2024-03-02T05:24:21;6.30;;;1.80;;
71116;SDS011;58775;46.992;9.518;2024-03-02T05:26:22;5.63;;;1.80;;
71116;SDS011;58775;46.992;9.518;2024-03-02T05:28:23;6.05;;;2.03;;
71116;SDS011;58775;46.992;9.518;2024-03-02T05:30:24;6.13;;;2.03;;
71116;SDS011;58775;46.992;9.518;2024-03-02T05:32:26;9.38;;;2.38;;
71116;SDS011;58775;46.992;9.518;2024-03-02T05:34:27;6.20;;;2.08;;
71116;SDS011;58775;46.992;9.518;2024-03-02T05:36:29;4.82;;;1.58;;
71116;SDS011;58775;46.992;9.518;2024-03-02T05:38:29;6.30;;;1.88;;
71116;SDS011;58775;46.992;9.518;2024-03-02T05:40:30;6.70;;;2.23;;
71116;SDS011;58775;46.992;9.518;2024-03-02T05:42:31;5.88;;;2.22;;
71116;SDS011;58775;46.992;9.518;2024-03-02T05:44:32;9.33;;;3.07;;
71116;SDS011;58775;46.992;9.518;2024-03-02T05:46:33;4.63;;;1.60;;
71116;SDS011;58775;46.992;9.518;2024-03-02T05:48:33;7.43;;;2.05;;
71116;SDS011;58775;46.992;9.518;2024-03-02T05:50:35;7.13;;;2.00;;
71116;SDS011;58775;46.992;9.518;2024-03-02T05:52:36;5.97;;;1.60;;
71116;SDS011;58775;46.992;9.518;2024-03-02T05:54:36;5.57;;;1.95;;
71116;SDS011;58775;46.992;9.518;2024-03-02T05:56:37;5.97;;;2.00;;
71116;SDS011;58775;46.992;9.518;2024-03-02T05:58:38;6.53;;;1.83;;
71116;SDS011;58775;46.992;9.518;2024-03-02T06:01:03;5.97;;;1.80;;
71116;SDS011;58775;46.992;9.518;2024-03-02T06:03:05;6.55;;;1.92;;
71116;SDS011;58775;46.992;9.518;2024-03-02T06:05:08;5.45;;;1.58;;
71116;SDS011;58775;46.992;9.518;2024-03-02T06:07:09;4.65;;;1.70;;
71116;SDS011;58775;46.992;9.518;2024-03-02T06:09:10;7.28;;;1.92;;
71116;SDS011;58775;46.992;9.518;2024-03-02T06:11:19;5.78;;;1.65;;
71116;SDS011;58775;46.992;9.518;2024-03-02T06:13:20;7.00;;;2.03;;
71116;SDS011;58775;46.992;9.518;2024-03-02T06:15:26;5.67;;;1.70;;
71116;SDS011;58775;46.992;9.518;2024-03-02T06:17:27;6.32;;;1.83;;
71116;SDS011;58775;46.992;9.518;2024-03-02T06:19:28;4.50;;;1.60;;
71116;SDS011;58775;46.992;9.518;2024-03-02T06:21:29;5.43;;;1.85;;
71116;SDS011;58775;46.992;9.518;2024-03-02T06:23:30;5.57;;;1.73;;
71116;SDS011;58775;46.992;9.518;2024-03-02T06:25:31;8.13;;;1.70;;
71116;SDS011;58775;46.992;9.518;2024-03-02T06:27:32;6.03;;;2.08;;
71116;SDS011;58775;46.992;9.518;2024-03-02T06:29:33;5.07;;;1.50;;
71116;SDS011;58775;46.992;9.518;2024-03-02T06:31:34;6.85;;;1.90;;
71116;SDS011;58775;46.992;9.518;2024-03-02T06:33:35;7.20;;;2.13;;
71116;SDS011;58775;46.992;9.518;2024-03-02T06:35:36;6.15;;;2.03;;
71116;SDS011;58775;46.992;9.518;2024-03-02T06:37:38;6.47;;;1.97;;
71116;SDS011;58775;46.992;9.518;2024-03-02T06:39:43;6.22;;;1.73;;
71116;SDS011;58775;46.992;9.518;2024-03-02T06:41:47;5.70;;;1.70;;
71116;SDS011;58775;46.992;9.518;2024-03-02T06:43:48;6.20;;;1.73;;
71116;SDS011;58775;46.992;9.518;2024-03-02T06:45:49;6.40;;;2.13;;
71116;SDS011;58775;46.992;9.518;2024-03-02T06:47:50;9.60;;;2.50;;
71116;SDS011;58775;46.992;9.518;2024-03-02T06:49:51;7.32;;;2.70;;
71116;SDS011;58775;46.992;9.518;2024-03-02T06:51:53;6.13;;;1.95;;
71116;SDS011;58775;46.992;9.518;2024-03-02T06:53:54;8.38;;;2.10;;
71116;SDS011;58775;46.992;9.518;2024-03-02T06:55:55;7.60;;;1.75;;
71116;SDS011;58775;46.992;9.518;2024-03-02T06:57:56;5.73;;;1.70;;
71116;SDS011;58775;46.992;9.518;2024-03-02T06:59:57;7.38;;;1.92;;
71116;SDS011;58775;46.992;9.518;2024-03-02T07:01:59;5.82;;;1.73;;
71116;SDS011;58775;46.992;9.518;2024-03-02T07:04:00;7.67;;;2.07;;
71116;SDS011;58775;46.992;9.518;2024-03-02T07:06:00;5.43;;;1.90;;
71116;SDS011;58775;46.992;9.518;2024-03-02T07:08:01;5.32;;;2.00;;
71116;SDS011;58775;46.992;9.518;2024-03-02T07:10:04;5.95;;;1.90;;
71116;SDS011;58775;46.992;9.518;2024-03-02T07:12:05;5.37;;;2.07;;
71116;SDS011;58775;46.992;9.518;2024-03-02T07:14:06;5.38;;;1.83;;
71116;SDS011;58775;46.992;9.518;2024-03-02T07:16:07;6.93;;;2.05;;
71116;SDS011;58775;46.992;9.518;2024-03-02T07:18:11;6.88;;;1.85;;
71116;SDS011;58775;46.992;9.518;2024-03-02T07:20:12;6.73;;;2.00;;
71116;SDS011;58775;46.992;9.518;2024-03-02T07:22:13;8.38;;;1.77;;
71116;SDS011;58775;46.992;9.518;2024-03-02T07:24:14;5.63;;;1.83;;
71116;SDS011;58775;46.992;9.518;2024-03-02T07:26:16;5.55;;;2.00;;
71116;SDS011;58775;46.992;9.518;2024-03-02T07:28:20;6.57;;;2.27;;
71116;SDS011;58775;46.992;9.518;2024-03-02T07:30:22;6.63;;;2.38;;
71116;SDS011;58775;46.992;9.518;2024-03-02T07:32:26;5.85;;;1.90;;
71116;SDS011;58775;46.992;9.518;2024-03-02T07:34:26;6.20;;;1.85;;
71116;SDS011;58775;46.992;9.518;2024-03-02T07:36:27;4.57;;;1.63;;
71116;SDS011;58775;46.992;9.518;2024-03-02T07:38:28;7.05;;;2.10;;
71116;SDS011;58775;46.992;9.518;2024-03-02T07:40:29;6.18;;;2.10;;
71116;SDS011;58775;46.992;9.518;2024-03-02T07:42:30;5.93;;;1.60;;
71116;SDS011;58775;46.992;9.518;2024-03-02T07:44:31;5.60;;;2.05;;
71116;SDS011;58775;46.992;9.518;2024-03-02T07:46:32;5.75;;;2.05;;
71116;SDS011;58775;46.992;9.518;2024-03-02T07:48:33;5.93;;;1.87;;
71116;SDS011;58775;46.992;9.518;2024-03-02T07:50:44;6.88;;;1.88;;
71116;SDS011;58775;46.992;9.518;2024-03-02T07:52:51;7.90;;;2.30;;
71116;SDS011;58775;46.992;9.518;2024-03-02T07:54:54;8.05;;;3.10;;
71116;SDS011;58775;46.992;9.518;2024-03-02T07:57:21;7.68;;;2.65;;
71116;SDS011;58775;46.992;9.518;2024-03-02T07:59:25;7.38;;;2.60;;
71116;SDS011;58775;46.992;9.518;2024-03-02T08:01:33;5.97;;;2.10;;
71116;SDS011;58775;46.992;9.518;2024-03-02T08:03:48;6.95;;;2.00;;
71116;SDS011;58775;46.992;9.518;2024-03-02T08:08:49;5.97;;;1.85;;
71116;SDS011;58775;46.992;9.518;2024-03-02T08:16:25;5.72;;;1.40;;
71116;SDS011;58775;46.992;9.518;2024-03-02T08:18:36;3.83;;;1.48;;
71116;SDS011;58775;46.992;9.518;2024-03-02T08:20:49;5.78;;;1.50;;
71116;SDS011;58775;46.992;9.518;2024-03-02T08:22:59;5.20;;;1.60;;
71116;SDS011;58775;46.992;9.518;2024-03-02T08:25:12;3.97;;;1.38;;
71116;SDS011;58775;46.992;9.518;2024-03-02T08:27:13;6.60;;;2.50;;
71116;SDS011;58775;46.992;9.518;2024-03-02T08:29:19;5.95;;;1.50;;
71116;SDS011;58775;46.992;9.518;2024-03-02T08:31:25;4.72;;;1.45;;
71116;SDS011;58775;46.992;9.518;2024-03-02T08:33:29;4.45;;;1.63;;
71116;SDS011;58775;46.992;9.518;2024-03-02T08:35:33;4.75;;;1.50;;
71116;SDS011;58775;46.992;9.518;2024-03-02T11:03:31;1.10;;;0.40;;
71116;SDS011;58775;46.992;9.518;2024-03-02T11:18:37;2.25;;;0.50;;
71116;SDS011;58775;46.992;9.518;2024-03-02T11:21:07;4.22;;;0.57;;
71116;SDS011;58775;46.992;9.518;2024-03-02T11:23:38;1.23;;;0.60;;
71116;SDS011;58775;46.992;9.518;2024-03-02T11:25:42;1.00;;;0.40;;
71116;SDS011;58775;46.992;9.518;2024-03-02T11:29:59;1.25;;;0.60;;
71116;SDS011;58775;46.992;9.518;2024-03-02T11:34:33;0.77;;;0.40;;
71116;SDS011;58775;46.992;9.518;2024-03-02T11:45:17;1.23;;;0.43;;
71116;SDS011;58775;46.992;9.518;2024-03-02T11:58:26;1.73;;;0.40;;
71116;SDS011;58775;46.992;9.518;2024-03-02T12:00:34;0.73;;;0.50;;
71116;SDS011;58775;46.992;9.518;2024-03-02T12:02:47;2.42;;;0.50;;
71116;SDS011;58775;46.992;9.518;2024-03-02T12:07:26;0.77;;;0.50;;
71116;SDS011;58775;46.992;9.518;2024-03-02T12:09:29;1.88;;;0.70;;
71116;SDS011;58775;46.992;9.518;2024-03-02T12:11:36;0.82;;;0.43;;
71116;SDS011;58775;46.992;9.518;2024-03-02T12:13:37;0.77;;;0.52;;
71116;SDS011;58775;46.992;9.518;2024-03-02T12:15:38;3.15;;;0.50;;
71116;SDS011;58775;46.992;9.518;2024-03-02T12:17:40;1.20;;;0.57;;
71116;SDS011;58775;46.992;9.518;2024-03-02T12:19:41;2.00;;;0.60;;
71116;SDS011;58775;46.992;9.518;2024-03-02T12:21:42;2.17;;;0.40;;
71116;SDS011;58775;46.992;9.518;2024-03-02T12:23:43;2.05;;;0.45;;
71116;SDS011;58775;46.992;9.518;2024-03-02T12:25:44;0.50;;;0.33;;
71116;SDS011;58775;46.992;9.518;2024-03-02T12:27:46;0.68;;;0.40;;
71116;SDS011;58775;46.992;9.518;2024-03-02T12:29:49;0.50;;;0.40;;
71116;SDS011;58775;46.992;9.518;2024-03-02T12:31:51;0.40;;;0.30;;
71116;SDS011;58775;46.992;9.518;2024-03-02T12:33:53;1.17;;;0.40;;
71116;SDS011;58775;46.992;9.518;2024-03-02T12:35:56;0.80;;;0.40;;
71116;SDS011;58775;46.992;9.518;2024-03-02T12:37:58;0.32;;;0.32;;
71116;SDS011;58775;46.992;9.518;2024-03-02T12:39:59;0.52;;;0.40;;
71116;SDS011;58775;46.992;9.518;2024-03-02T12:42:02;0.50;;;0.40;;
71116;SDS011;58775;46.992;9.518;2024-03-02T12:44:03;1.13;;;0.88;;
71116;SDS011;58775;46.992;9.518;2024-03-02T12:46:05;0.30;;;0.30;;
71116;SDS011;58775;46.992;9.518;2024-03-02T12:48:06;1.63;;;0.30;;
71116;SDS011;58775;46.992;9.518;2024-03-02T12:50:07;0.63;;;0.30;;
71116;SDS011;58775;46.992;9.518;2024-03-02T12:52:11;0.68;;;0.30;;
71116;SDS011;58775;46.992;9.518;2024-03-02T12:54:13;0.55;;;0.40;;
71116;SDS011;58775;46.992;9.518;2024-03-02T12:56:14;1.83;;;0.40;;
71116;SDS011;58775;46.992;9.518;2024-03-02T12:58:19;0.40;;;0.30;;
71116;SDS011;58775;46.992;9.518;2024-03-02T13:00:21;0.30;;;0.30;;
71116;SDS011;58775;46.992;9.518;2024-03-02T13:02:22;0.40;;;0.40;;
71116;SDS011;58775;46.992;9.518;2024-03-02T13:04:27;1.50;;;0.40;;
71116;SDS011;58775;46.992;9.518;2024-03-02T13:06:29;0.65;;;0.30;;
71116;SDS011;58775;46.992;9.518;2024-03-02T13:08:29;0.68;;;0.32;;
71116;SDS011;58775;46.992;9.518;2024-03-02T13:10:31;1.05;;;0.35;;
71116;SDS011;58775;46.992;9.518;2024-03-02T13:17:23;1.42;;;0.30;;
71116;SDS011;58775;46.992;9.518;2024-03-02T14:42:55;0.17;;;0.17;;
71116;SDS011;58775;46.992;9.518;2024-03-02T14:50:36;1.77;;;0.30;;
71116;SDS011;58775;46.992;9.518;2024-03-02T14:53:00;0.20;;;0.20;;
71116;SDS011;58775;46.992;9.518;2024-03-02T14:58:39;0.57;;;0.30;;
71116;SDS011;58775;46.992;9.518;2024-03-02T15:00:56;0.80;;;0.25;;
71116;SDS011;58775;46.992;9.518;2024-03-02T15:03:00;0.68;;;0.20;;
71116;SDS011;58775;46.992;9.518;2024-03-02T15:05:40;0.40;;;0.20;;
71116;SDS011;58775;46.992;9.518;2024-03-02T15:07:47;1.53;;;0.20;;
71116;SDS011;58775;46.992;9.518;2024-03-02T15:09:51;0.63;;;0.20;;
71116;SDS011;58775;46.992;9.518;2024-03-02T15:11:55;0.40;;;0.20;;
71116;SDS011;58775;46.992;9.518;2024-03-02T15:14:01;0.57;;;0.20;;
71116;SDS011;58775;46.992;9.518;2024-03-02T15:16:10;0.40;;;0.20;;
71116;SDS011;58775;46.992;9.518;2024-03-02T15:18:17;0.30;;;0.20;;
71116;SDS011;58775;46.992;9.518;2024-03-02T15:20:27;1.30;;;0.30;;
71116;SDS011;58775;46.992;9.518;2024-03-02T15:22:28;0.22;;;0.20;;
71116;SDS011;58775;46.992;9.518;2024-03-02T15:24:35;0.47;;;0.30;;
71116;SDS011;58775;46.992;9.518;2024-03-02T15:26:41;0.40;;;0.20;;
71116;SDS011;58775;46.992;9.518;2024-03-02T15:28:52;1.65;;;0.20;;
71116;SDS011;58775;46.992;9.518;2024-03-02T15:30:59;0.68;;;0.30;;
71116;SDS011;58775;46.992;9.518;2024-03-02T15:33:02;0.25;;;0.20;;
71116;SDS011;58775;46.992;9.518;2024-03-02T15:35:04;0.50;;;0.20;;
71116;SDS011;58775;46.992;9.518;2024-03-02T15:37:06;0.30;;;0.25;;
71116;SDS011;58775;46.992;9.518;2024-03-02T15:39:10;1.48;;;0.20;;
71116;SDS011;58775;46.992;9.518;2024-03-02T15:41:11;0.30;;;0.28;;
71116;SDS011;58775;46.992;9.518;2024-03-02T15:43:13;0.95;;;0.20;;
71116;SDS011;58775;46.992;9.518;2024-03-02T15:45:14;0.20;;;0.20;;
71116;SDS011;58775;46.992;9.518;2024-03-02T15:47:15;1.27;;;0.30;;
71116;SDS011;58775;46.992;9.518;2024-03-02T15:49:16;0.47;;;0.20;;
71116;SDS011;58775;46.992;9.518;2024-03-02T15:51:17;0.47;;;0.20;;
71116;SDS011;58775;46.992;9.518;2024-03-02T15:53:18;0.60;;;0.20;;
71116;SDS011;58775;46.992;9.518;2024-03-02T15:55:19;0.50;;;0.20;;
71116;SDS011;58775;46.992;9.518;2024-03-02T15:57:20;1.90;;;0.20;;
71116;SDS011;58775;46.992;9.518;2024-03-02T15:59:23;0.30;;;0.20;;
71116;SDS011;58775;46.992;9.518;2024-03-02T16:01:24;0.95;;;0.20;;
71116;SDS011;58775;46.992;9.518;2024-03-02T16:03:25;1.07;;;0.20;;
71116;SDS011;58775;46.992;9.518;2024-03-02T16:05:26;1.27;;;0.20;;
71116;SDS011;58775;46.992;9.518;2024-03-02T16:07:27;1.67;;;0.30;;
71116;SDS011;58775;46.992;9.518;2024-03-02T16:09:49;2.78;;;0.45;;
71116;SDS011;58775;46.992;9.518;2024-03-02T16:11:52;0.73;;;0.25;;
71116;SDS011;58775;46.992;9.518;2024-03-02T16:13:53;0.55;;;0.20;;
71116;SDS011;58775;46.992;9.518;2024-03-02T16:15:53;1.05;;;0.40;;
71116;SDS011;58775;46.992;9.518;2024-03-02T16:17:54;2.08;;;0.20;;
71116;SDS011;58775;46.992;9.518;2024-03-02T16:19:55;1.05;;;0.30;;
71116;SDS011;58775;46.992;9.518;2024-03-02T16:21:58;0.30;;;0.20;;
71116;SDS011;58775;46.992;9.518;2024-03-02T16:23:59;0.28;;;0.20;;
71116;SDS011;58775;46.992;9.518;2024-03-02T16:26:00;0.47;;;0.20;;
71116;SDS011;58775;46.992;9.518;2024-03-02T16:28:02;0.28;;;0.20;;
71116;SDS011;58775;46.992;9.518;2024-03-02T16:30:04;1.42;;;0.22;;
71116;SDS011;58775;46.992;9.518;2024-03-02T16:32:05;0.70;;;0.20;;
71116;SDS011;58775;46.992;9.518;2024-03-02T16:34:09;0.20;;;0.20;;
71116;SDS011;58775;46.992;9.518;2024-03-02T16:36:13;2.03;;;0.50;;
71116;SDS011;58775;46.992;9.518;2024-03-02T16:38:21;0.50;;;0.30;;
71116;SDS011;58775;46.992;9.518;2024-03-02T16:40:22;0.52;;;0.30;;
71116;SDS011;58775;46.992;9.518;2024-03-02T16:42:26;0.65;;;0.28;;
71116;SDS011;58775;46.992;9.518;2024-03-02T16:44:30;3.63;;;1.30;;
71116;SDS011;58775;46.992;9.518;2024-03-02T16:46:31;9.38;;;5.53;;
71116;SDS011;58775;46.992;9.518;2024-03-02T16:48:37;3.90;;;1.17;;
71116;SDS011;58775;46.992;9.518;2024-03-02T16:50:47;5.07;;;2.17;;
71116;SDS011;58775;46.992;9.518;2024-03-02T16:52:48;3.20;;;0.70;;
71116;SDS011;58775;46.992;9.518;2024-03-02T16:54:49;1.87;;;0.60;;
71116;SDS011;58775;46.992;9.518;2024-03-02T16:56:50;3.85;;;0.50;;
71116;SDS011;58775;46.992;9.518;2024-03-02T16:58:51;0.93;;;0.30;;
71116;SDS011;58775;46.992;9.518;2024-03-02T17:00:52;0.73;;;0.38;;
71116;SDS011;58775;46.992;9.518;2024-03-02T17:02:53;0.45;;;0.20;;
71116;SDS011;58775;46.992;9.518;2024-03-02T17:04:54;0.20;;;0.20;;
71116;SDS011;58775;46.992;9.518;2024-03-02T17:06:55;0.60;;;0.30;;
71116;SDS011;58775;46.992;9.518;2024-03-02T17:08:56;1.13;;;0.20;;
71116;SDS011;58775;46.992;9.518;2024-03-02T17:10:58;0.20;;;0.20;;
71116;SDS011;58775;46.992;9.518;2024-03-02T17:12:59;2.00;;;0.60;;
71116;SDS011;58775;46.992;9.518;2024-03-02T17:15:00;0.43;;;0.30;;
71116;SDS011;58775;46.992;9.518;2024-03-02T17:17:01;0.60;;;0.20;;
71116;SDS011;58775;46.992;9.518;2024-03-02T17:19:02;0.30;;;0.28;;
71116;SDS011;58775;46.992;9.518;2024-03-02T17:21:03;0.50;;;0.20;;
71116;SDS011;58775;46.992;9.518;2024-03-02T17:23:04;0.90;;;0.30;;
71116;SDS011;58775;46.992;9.518;2024-03-02T17:25:05;0.77;;;0.25;;
71116;SDS011;58775;46.992;9.518;2024-03-02T17:27:06;1.00;;;0.30;;
71116;SDS011;58775;46.992;9.518;2024-03-02T17:29:07;0.90;;;0.30;;
71116;SDS011;58775;46.992;9.518;2024-03-02T17:31:08;0.52;;;0.30;;
71116;SDS011;58775;46.992;9.518;2024-03-02T17:33:09;0.80;;;0.30;;
71116;SDS011;58775;46.992;9.518;2024-03-02T17:35:10;1.03;;;0.30;;